sensor_id;sensor_type;location;lat;lon;timestamp;temperature;humidity
62575;DHT22;53112;45.602;11.904;2022-10-16T00:00:33;21.70;62.00
62575;DHT22;53112;45.602;11.904;2022-10-16T00:02:59;21.70;61.70
62575;DHT22;53112;45.602;11.904;2022-10-16T00:05:25;21.80;61.50
62575;DHT22;53112;45.602;11.904;2022-10-16T00:07:51;21.80;61.70
62575;DHT22;53112;45.602;11.904;2022-10-16T00:10:17;21.80;62.30
62575;DHT22;53112;45.602;11.904;2022-10-16T00:12:43;21.70;61.90
62575;DHT22;53112;45.602;11.904;2022-10-16T00:15:09;21.70;62.10
62575;DHT22;53112;45.602;11.904;2022-10-16T00:17:35;21.70;62.10
62575;DHT22;53112;45.602;11.904;2022-10-16T00:20:01;21.70;62.20
62575;DHT22;53112;45.602;11.904;2022-10-16T00:22:27;21.60;62.10
62575;DHT22;53112;45.602;11.904;2022-10-16T00:24:53;21.70;62.10
62575;DHT22;53112;45.602;11.904;2022-10-16T00:27:19;21.70;62.40
62575;DHT22;53112;45.602;11.904;2022-10-16T00:29:52;21.60;62.40
62575;DHT22;53112;45.602;11.904;2022-10-16T00:32:19;21.60;62.60
62575;DHT22;53112;45.602;11.904;2022-10-16T00:34:45;21.60;62.60
62575;DHT22;53112;45.602;11.904;2022-10-16T00:37:13;21.60;62.70
62575;DHT22;53112;45.602;11.904;2022-10-16T00:39:39;21.40;63.60
62575;DHT22;53112;45.602;11.904;2022-10-16T00:42:05;21.30;63.90
62575;DHT22;53112;45.602;11.904;2022-10-16T00:44:52;21.10;64.50
62575;DHT22;53112;45.602;11.904;2022-10-16T00:49:51;21.30;64.10
62575;DHT22;53112;45.602;11.904;2022-10-16T00:52:19;21.40;64.00
62575;DHT22;53112;45.602;11.904;2022-10-16T00:54:46;21.50;63.30
62575;DHT22;53112;45.602;11.904;2022-10-16T00:57:12;21.60;62.70
62575;DHT22;53112;45.602;11.904;2022-10-16T00:59:41;21.50;63.50
62575;DHT22;53112;45.602;11.904;2022-10-16T01:02:10;21.50;63.10
62575;DHT22;53112;45.602;11.904;2022-10-16T01:04:45;21.50;63.10
62575;DHT22;53112;45.602;11.904;2022-10-16T01:20:54;21.60;62.40
62575;DHT22;53112;45.602;11.904;2022-10-16T01:32:28;21.40;63.10
62575;DHT22;53112;45.602;11.904;2022-10-16T01:35:18;21.30;63.60
62575;DHT22;53112;45.602;11.904;2022-10-16T01:38:00;21.40;64.40
62575;DHT22;53112;45.602;11.904;2022-10-16T01:40:30;21.40;63.00
62575;DHT22;53112;45.602;11.904;2022-10-16T01:43:06;21.30;63.50
62575;DHT22;53112;45.602;11.904;2022-10-16T01:45:34;21.40;63.30
62575;DHT22;53112;45.602;11.904;2022-10-16T01:48:02;21.30;63.20
62575;DHT22;53112;45.602;11.904;2022-10-16T01:50:37;21.30;63.30
62575;DHT22;53112;45.602;11.904;2022-10-16T01:53:08;21.30;63.20
62575;DHT22;53112;45.602;11.904;2022-10-16T01:55:40;21.30;63.10
62575;DHT22;53112;45.602;11.904;2022-10-16T01:58:12;21.30;63.20
62575;DHT22;53112;45.602;11.904;2022-10-16T02:00:43;21.20;63.30
62575;DHT22;53112;45.602;11.904;2022-10-16T02:03:11;21.10;63.20
62575;DHT22;53112;45.602;11.904;2022-10-16T02:05:58;21.10;63.60
62575;DHT22;53112;45.602;11.904;2022-10-16T02:08:27;21.20;63.80
62575;DHT22;53112;45.602;11.904;2022-10-16T02:10:58;21.20;63.20
62575;DHT22;53112;45.602;11.904;2022-10-16T02:13:34;21.20;63.10
62575;DHT22;53112;45.602;11.904;2022-10-16T02:16:02;21.00;64.40
62575;DHT22;53112;45.602;11.904;2022-10-16T02:18:29;21.00;64.10
62575;DHT22;53112;45.602;11.904;2022-10-16T02:21:13;21.10;63.60
62575;DHT22;53112;45.602;11.904;2022-10-16T02:26:25;21.10;63.90
62575;DHT22;53112;45.602;11.904;2022-10-16T02:28:58;21.20;63.50
62575;DHT22;53112;45.602;11.904;2022-10-16T02:31:28;21.10;63.40
62575;DHT22;53112;45.602;11.904;2022-10-16T02:33:59;21.20;63.30
62575;DHT22;53112;45.602;11.904;2022-10-16T02:36:26;21.20;63.30
62575;DHT22;53112;45.602;11.904;2022-10-16T02:38:53;21.20;63.10
62575;DHT22;53112;45.602;11.904;2022-10-16T02:41:21;21.20;64.40
62575;DHT22;53112;45.602;11.904;2022-10-16T02:43:47;21.20;63.50
62575;DHT22;53112;45.602;11.904;2022-10-16T02:46:14;21.20;63.40
62575;DHT22;53112;45.602;11.904;2022-10-16T02:48:41;21.10;64.00
62575;DHT22;53112;45.602;11.904;2022-10-16T02:51:06;20.90;65.00
62575;DHT22;53112;45.602;11.904;2022-10-16T02:53:32;20.90;64.90
62575;DHT22;53112;45.602;11.904;2022-10-16T02:55:58;21.00;64.20
62575;DHT22;53112;45.602;11.904;2022-10-16T02:58:24;21.10;64.00
62575;DHT22;53112;45.602;11.904;2022-10-16T03:00:50;21.20;63.70
62575;DHT22;53112;45.602;11.904;2022-10-16T03:03:16;21.20;63.70
62575;DHT22;53112;45.602;11.904;2022-10-16T03:05:43;21.10;63.70
62575;DHT22;53112;45.602;11.904;2022-10-16T03:08:12;21.20;63.50
62575;DHT22;53112;45.602;11.904;2022-10-16T03:10:38;21.10;63.60
62575;DHT22;53112;45.602;11.904;2022-10-16T03:13:04;21.10;63.90
62575;DHT22;53112;45.602;11.904;2022-10-16T03:15:30;21.20;63.70
62575;DHT22;53112;45.602;11.904;2022-10-16T03:17:59;21.20;63.80
62575;DHT22;53112;45.602;11.904;2022-10-16T03:20:26;21.20;64.50
62575;DHT22;53112;45.602;11.904;2022-10-16T03:22:52;21.10;64.40
62575;DHT22;53112;45.602;11.904;2022-10-16T03:25:18;21.10;64.50
62575;DHT22;53112;45.602;11.904;2022-10-16T03:27:44;21.10;64.20
62575;DHT22;53112;45.602;11.904;2022-10-16T03:30:10;21.10;64.30
62575;DHT22;53112;45.602;11.904;2022-10-16T03:32:36;21.00;64.60
62575;DHT22;53112;45.602;11.904;2022-10-16T03:35:02;20.90;65.20
62575;DHT22;53112;45.602;11.904;2022-10-16T03:37:28;20.80;65.70
62575;DHT22;53112;45.602;11.904;2022-10-16T03:39:54;20.70;66.50
62575;DHT22;53112;45.602;11.904;2022-10-16T03:42:20;20.60;66.10
62575;DHT22;53112;45.602;11.904;2022-10-16T03:44:46;20.50;67.30
62575;DHT22;53112;45.602;11.904;2022-10-16T03:47:12;20.50;66.40
62575;DHT22;53112;45.602;11.904;2022-10-16T03:49:38;20.30;67.00
62575;DHT22;53112;45.602;11.904;2022-10-16T03:52:04;20.20;67.60
62575;DHT22;53112;45.602;11.904;2022-10-16T03:54:30;20.20;67.10
62575;DHT22;53112;45.602;11.904;2022-10-16T03:56:56;20.30;66.70
62575;DHT22;53112;45.602;11.904;2022-10-16T03:59:22;20.20;66.90
62575;DHT22;53112;45.602;11.904;2022-10-16T04:01:47;20.10;67.00
62575;DHT22;53112;45.602;11.904;2022-10-16T04:04:13;19.90;67.40
62575;DHT22;53112;45.602;11.904;2022-10-16T04:06:39;19.90;67.60
62575;DHT22;53112;45.602;11.904;2022-10-16T04:09:05;19.90;67.70
62575;DHT22;53112;45.602;11.904;2022-10-16T04:11:31;19.90;67.50
62575;DHT22;53112;45.602;11.904;2022-10-16T04:13:57;19.90;67.00
62575;DHT22;53112;45.602;11.904;2022-10-16T04:16:23;19.70;67.40
62575;DHT22;53112;45.602;11.904;2022-10-16T04:18:49;19.70;67.30
62575;DHT22;53112;45.602;11.904;2022-10-16T04:21:14;19.60;67.50
62575;DHT22;53112;45.602;11.904;2022-10-16T04:23:41;19.60;68.00
62575;DHT22;53112;45.602;11.904;2022-10-16T04:26:07;19.60;68.20
62575;DHT22;53112;45.602;11.904;2022-10-16T04:28:33;19.30;69.00
62575;DHT22;53112;45.602;11.904;2022-10-16T04:30:59;19.40;68.30
62575;DHT22;53112;45.602;11.904;2022-10-16T04:33:25;19.50;67.90
62575;DHT22;53112;45.602;11.904;2022-10-16T04:35:58;19.60;67.50
62575;DHT22;53112;45.602;11.904;2022-10-16T04:38:25;19.40;67.60
62575;DHT22;53112;45.602;11.904;2022-10-16T04:40:51;19.40;67.70
62575;DHT22;53112;45.602;11.904;2022-10-16T04:43:18;19.50;67.00
62575;DHT22;53112;45.602;11.904;2022-10-16T04:45:44;19.60;66.60
62575;DHT22;53112;45.602;11.904;2022-10-16T04:48:10;19.60;66.10
62575;DHT22;53112;45.602;11.904;2022-10-16T04:50:36;19.50;66.20
62575;DHT22;53112;45.602;11.904;2022-10-16T04:53:02;19.50;65.90
62575;DHT22;53112;45.602;11.904;2022-10-16T04:55:28;19.40;66.30
62575;DHT22;53112;45.602;11.904;2022-10-16T04:57:54;19.40;66.50
62575;DHT22;53112;45.602;11.904;2022-10-16T05:00:20;19.30;66.40
62575;DHT22;53112;45.602;11.904;2022-10-16T05:02:50;19.30;66.40
62575;DHT22;53112;45.602;11.904;2022-10-16T05:05:16;19.20;66.40
62575;DHT22;53112;45.602;11.904;2022-10-16T05:07:42;19.20;66.60
62575;DHT22;53112;45.602;11.904;2022-10-16T05:10:07;19.00;67.00
62575;DHT22;53112;45.602;11.904;2022-10-16T05:12:33;19.00;67.60
62575;DHT22;53112;45.602;11.904;2022-10-16T05:15:06;18.80;67.50
62575;DHT22;53112;45.602;11.904;2022-10-16T05:17:32;18.90;67.30
62575;DHT22;53112;45.602;11.904;2022-10-16T05:19:58;19.00;66.90
62575;DHT22;53112;45.602;11.904;2022-10-16T05:22:24;19.00;67.60
62575;DHT22;53112;45.602;11.904;2022-10-16T05:24:50;19.00;67.30
62575;DHT22;53112;45.602;11.904;2022-10-16T05:27:16;19.00;66.80
62575;DHT22;53112;45.602;11.904;2022-10-16T05:29:48;19.00;66.50
62575;DHT22;53112;45.602;11.904;2022-10-16T05:32:15;19.10;66.20
62575;DHT22;53112;45.602;11.904;2022-10-16T05:34:42;19.10;66.00
62575;DHT22;53112;45.602;11.904;2022-10-16T05:37:08;19.00;66.10
62575;DHT22;53112;45.602;11.904;2022-10-16T05:39:34;19.00;65.80
62575;DHT22;53112;45.602;11.904;2022-10-16T05:42:02;19.00;65.80
62575;DHT22;53112;45.602;11.904;2022-10-16T05:44:28;18.80;66.60
62575;DHT22;53112;45.602;11.904;2022-10-16T05:46:55;18.60;66.90
62575;DHT22;53112;45.602;11.904;2022-10-16T05:49:20;18.60;67.10
62575;DHT22;53112;45.602;11.904;2022-10-16T05:51:46;18.40;67.60
62575;DHT22;53112;45.602;11.904;2022-10-16T05:54:12;18.30;68.30
62575;DHT22;53112;45.602;11.904;2022-10-16T05:56:38;18.40;68.20
62575;DHT22;53112;45.602;11.904;2022-10-16T05:59:05;18.50;68.00
62575;DHT22;53112;45.602;11.904;2022-10-16T06:01:32;18.70;66.70
62575;DHT22;53112;45.602;11.904;2022-10-16T06:03:58;18.80;66.20
62575;DHT22;53112;45.602;11.904;2022-10-16T06:06:26;18.90;65.80
62575;DHT22;53112;45.602;11.904;2022-10-16T06:08:54;19.00;65.50
62575;DHT22;53112;45.602;11.904;2022-10-16T06:11:26;19.00;65.20
62575;DHT22;53112;45.602;11.904;2022-10-16T06:13:57;19.00;65.20
62575;DHT22;53112;45.602;11.904;2022-10-16T06:16:24;19.10;65.10
62575;DHT22;53112;45.602;11.904;2022-10-16T06:18:52;19.10;64.90
62575;DHT22;53112;45.602;11.904;2022-10-16T06:21:21;19.20;64.50
62575;DHT22;53112;45.602;11.904;2022-10-16T06:23:47;19.30;64.30
62575;DHT22;53112;45.602;11.904;2022-10-16T06:26:16;19.40;64.10
62575;DHT22;53112;45.602;11.904;2022-10-16T06:28:42;19.50;63.80
62575;DHT22;53112;45.602;11.904;2022-10-16T06:31:10;19.60;63.60
62575;DHT22;53112;45.602;11.904;2022-10-16T06:33:37;19.70;63.40
62575;DHT22;53112;45.602;11.904;2022-10-16T06:36:10;19.70;63.40
62575;DHT22;53112;45.602;11.904;2022-10-16T06:38:37;19.60;64.40
62575;DHT22;53112;45.602;11.904;2022-10-16T06:41:04;19.50;64.90
62575;DHT22;53112;45.602;11.904;2022-10-16T06:43:31;19.50;65.30
62575;DHT22;53112;45.602;11.904;2022-10-16T06:46:05;19.60;64.90
62575;DHT22;53112;45.602;11.904;2022-10-16T06:48:33;20.00;63.80
62575;DHT22;53112;45.602;11.904;2022-10-16T06:53:28;20.40;63.00
62575;DHT22;53112;45.602;11.904;2022-10-16T06:55:54;20.50;62.40
62575;DHT22;53112;45.602;11.904;2022-10-16T06:58:20;20.80;61.90
62575;DHT22;53112;45.602;11.904;2022-10-16T07:00:47;21.00;61.90
62575;DHT22;53112;45.602;11.904;2022-10-16T07:03:14;21.20;61.40
62575;DHT22;53112;45.602;11.904;2022-10-16T07:05:41;21.40;60.80
62575;DHT22;53112;45.602;11.904;2022-10-16T07:08:08;21.30;60.70
62575;DHT22;53112;45.602;11.904;2022-10-16T07:10:35;21.60;60.30
62575;DHT22;53112;45.602;11.904;2022-10-16T07:13:01;21.90;60.10
62575;DHT22;53112;45.602;11.904;2022-10-16T07:15:27;22.00;59.60
62575;DHT22;53112;45.602;11.904;2022-10-16T07:17:53;22.30;58.50
62575;DHT22;53112;45.602;11.904;2022-10-16T07:20:19;22.50;57.80
62575;DHT22;53112;45.602;11.904;2022-10-16T07:22:45;22.50;57.90
62575;DHT22;53112;45.602;11.904;2022-10-16T07:25:11;22.60;58.10
62575;DHT22;53112;45.602;11.904;2022-10-16T07:27:38;22.60;57.70
62575;DHT22;53112;45.602;11.904;2022-10-16T07:30:05;22.60;57.10
62575;DHT22;53112;45.602;11.904;2022-10-16T07:32:31;22.70;56.80
62575;DHT22;53112;45.602;11.904;2022-10-16T07:34:57;22.90;56.30
62575;DHT22;53112;45.602;11.904;2022-10-16T07:37:23;23.10;56.20
62575;DHT22;53112;45.602;11.904;2022-10-16T07:39:49;22.90;56.60
62575;DHT22;53112;45.602;11.904;2022-10-16T07:42:15;22.80;57.00
62575;DHT22;53112;45.602;11.904;2022-10-16T07:44:41;22.70;57.20
62575;DHT22;53112;45.602;11.904;2022-10-16T07:47:07;22.70;57.50
62575;DHT22;53112;45.602;11.904;2022-10-16T07:49:33;22.80;57.60
62575;DHT22;53112;45.602;11.904;2022-10-16T07:51:59;22.70;57.60
62575;DHT22;53112;45.602;11.904;2022-10-16T07:54:25;23.30;56.20
62575;DHT22;53112;45.602;11.904;2022-10-16T07:56:51;23.50;55.60
62575;DHT22;53112;45.602;11.904;2022-10-16T07:59:17;23.80;55.00
62575;DHT22;53112;45.602;11.904;2022-10-16T08:01:43;24.00;54.50
62575;DHT22;53112;45.602;11.904;2022-10-16T08:04:09;24.20;53.90
62575;DHT22;53112;45.602;11.904;2022-10-16T08:06:38;24.50;54.20
62575;DHT22;53112;45.602;11.904;2022-10-16T08:09:05;24.70;53.00
62575;DHT22;53112;45.602;11.904;2022-10-16T08:11:32;24.80;52.80
62575;DHT22;53112;45.602;11.904;2022-10-16T08:13:58;25.70;51.00
62575;DHT22;53112;45.602;11.904;2022-10-16T08:16:24;26.00;50.70
62575;DHT22;53112;45.602;11.904;2022-10-16T08:18:50;26.10;51.10
62575;DHT22;53112;45.602;11.904;2022-10-16T08:21:20;26.20;49.70
62575;DHT22;53112;45.602;11.904;2022-10-16T08:23:46;26.60;48.50
62575;DHT22;53112;45.602;11.904;2022-10-16T08:26:13;26.70;48.10
62575;DHT22;53112;45.602;11.904;2022-10-16T08:28:39;26.80;47.80
62575;DHT22;53112;45.602;11.904;2022-10-16T08:31:13;26.80;47.80
62575;DHT22;53112;45.602;11.904;2022-10-16T08:33:42;27.60;46.10
62575;DHT22;53112;45.602;11.904;2022-10-16T08:36:10;27.70;45.30
62575;DHT22;53112;45.602;11.904;2022-10-16T08:38:37;28.20;44.90
62575;DHT22;53112;45.602;11.904;2022-10-16T08:43:39;28.70;43.10
62575;DHT22;53112;45.602;11.904;2022-10-16T08:46:42;28.70;42.70
62575;DHT22;53112;45.602;11.904;2022-10-16T08:49:11;29.10;42.60
62575;DHT22;53112;45.602;11.904;2022-10-16T08:51:39;29.10;42.80
62575;DHT22;53112;45.602;11.904;2022-10-16T08:56:49;29.10;42.50
62575;DHT22;53112;45.602;11.904;2022-10-16T08:59:16;28.10;45.00
62575;DHT22;53112;45.602;11.904;2022-10-16T09:01:47;28.50;44.30
62575;DHT22;53112;45.602;11.904;2022-10-16T09:20:31;30.60;40.20
62575;DHT22;53112;45.602;11.904;2022-10-16T09:23:19;30.00;40.00
62575;DHT22;53112;45.602;11.904;2022-10-16T09:25:49;30.00;40.50
62575;DHT22;53112;45.602;11.904;2022-10-16T09:28:17;30.50;40.90
62575;DHT22;53112;45.602;11.904;2022-10-16T09:30:45;30.80;40.40
62575;DHT22;53112;45.602;11.904;2022-10-16T09:33:12;31.20;39.40
62575;DHT22;53112;45.602;11.904;2022-10-16T09:35:50;31.10;39.00
62575;DHT22;53112;45.602;11.904;2022-10-16T09:40:52;31.20;38.70
62575;DHT22;53112;45.602;11.904;2022-10-16T09:43:39;31.70;37.60
62575;DHT22;53112;45.602;11.904;2022-10-16T09:48:59;31.80;39.40
62575;DHT22;53112;45.602;11.904;2022-10-16T09:51:33;31.60;38.00
62575;DHT22;53112;45.602;11.904;2022-10-16T09:56:36;32.60;36.80
62575;DHT22;53112;45.602;11.904;2022-10-16T10:01:48;32.10;37.90
62575;DHT22;53112;45.602;11.904;2022-10-16T10:04:14;32.30;37.20
62575;DHT22;53112;45.602;11.904;2022-10-16T10:06:44;32.70;37.00
62575;DHT22;53112;45.602;11.904;2022-10-16T10:09:32;32.70;37.10
62575;DHT22;53112;45.602;11.904;2022-10-16T10:11:59;32.70;36.60
62575;DHT22;53112;45.602;11.904;2022-10-16T10:14:39;33.60;35.80
62575;DHT22;53112;45.602;11.904;2022-10-16T10:17:23;33.60;35.60
62575;DHT22;53112;45.602;11.904;2022-10-16T10:19:54;34.60;34.40
62575;DHT22;53112;45.602;11.904;2022-10-16T10:27:44;34.00;35.40
62575;DHT22;53112;45.602;11.904;2022-10-16T10:38:58;33.50;36.00
62575;DHT22;53112;45.602;11.904;2022-10-16T10:44:11;33.70;36.10
62575;DHT22;53112;45.602;11.904;2022-10-16T10:46:56;33.40;36.30
62575;DHT22;53112;45.602;11.904;2022-10-16T10:52:20;34.10;35.20
62575;DHT22;53112;45.602;11.904;2022-10-16T10:58:31;33.80;33.20
62575;DHT22;53112;45.602;11.904;2022-10-16T11:01:03;33.80;35.60
62575;DHT22;53112;45.602;11.904;2022-10-16T11:05:01;34.50;34.40
62575;DHT22;53112;45.602;11.904;2022-10-16T11:07:01;34.60;33.50
62575;DHT22;53112;45.602;11.904;2022-10-16T11:09:40;34.90;33.30
62575;DHT22;53112;45.602;11.904;2022-10-16T11:14:41;36.00;31.90
62575;DHT22;53112;45.602;11.904;2022-10-16T11:17:13;36.60;31.20
62575;DHT22;53112;45.602;11.904;2022-10-16T11:19:54;36.70;31.10
62575;DHT22;53112;45.602;11.904;2022-10-16T11:25:06;36.10;32.00
62575;DHT22;53112;45.602;11.904;2022-10-16T11:28:19;36.10;30.10
62575;DHT22;53112;45.602;11.904;2022-10-16T11:31:16;36.80;28.90
62575;DHT22;53112;45.602;11.904;2022-10-16T11:34:01;36.90;30.40
62575;DHT22;53112;45.602;11.904;2022-10-16T11:36:59;35.80;29.60
62575;DHT22;53112;45.602;11.904;2022-10-16T11:39:30;36.40;30.60
62575;DHT22;53112;45.602;11.904;2022-10-16T11:42:11;36.00;31.10
62575;DHT22;53112;45.602;11.904;2022-10-16T11:44:43;37.10;29.80
62575;DHT22;53112;45.602;11.904;2022-10-16T11:49:46;36.20;30.20
62575;DHT22;53112;45.602;11.904;2022-10-16T11:52:35;37.30;30.00
62575;DHT22;53112;45.602;11.904;2022-10-16T11:55:17;37.70;29.30
62575;DHT22;53112;45.602;11.904;2022-10-16T11:58:07;36.60;30.80
62575;DHT22;53112;45.602;11.904;2022-10-16T12:06:13;37.10;28.60
62575;DHT22;53112;45.602;11.904;2022-10-16T12:08:42;37.10;29.60
62575;DHT22;53112;45.602;11.904;2022-10-16T12:16:39;37.20;29.20
62575;DHT22;53112;45.602;11.904;2022-10-16T12:19:17;37.10;30.00
62575;DHT22;53112;45.602;11.904;2022-10-16T12:21:44;37.30;30.10
62575;DHT22;53112;45.602;11.904;2022-10-16T12:24:35;37.40;30.30
62575;DHT22;53112;45.602;11.904;2022-10-16T12:27:20;37.90;28.60
62575;DHT22;53112;45.602;11.904;2022-10-16T12:30:02;38.30;28.50
62575;DHT22;53112;45.602;11.904;2022-10-16T12:32:37;37.30;30.30
62575;DHT22;53112;45.602;11.904;2022-10-16T12:35:21;37.20;30.60
62575;DHT22;53112;45.602;11.904;2022-10-16T12:37:48;36.90;30.70
62575;DHT22;53112;45.602;11.904;2022-10-16T12:42:52;36.80;31.10
62575;DHT22;53112;45.602;11.904;2022-10-16T12:45:33;36.00;31.70
62575;DHT22;53112;45.602;11.904;2022-10-16T12:48:01;36.00;31.60
62575;DHT22;53112;45.602;11.904;2022-10-16T12:50:38;35.60;32.90
62575;DHT22;53112;45.602;11.904;2022-10-16T12:53:24;35.00;32.60
62575;DHT22;53112;45.602;11.904;2022-10-16T12:56:23;35.10;32.10
62575;DHT22;53112;45.602;11.904;2022-10-16T13:04:40;34.80;33.00
62575;DHT22;53112;45.602;11.904;2022-10-16T13:10:41;35.10;32.70
62575;DHT22;53112;45.602;11.904;2022-10-16T13:13:18;35.30;31.90
62575;DHT22;53112;45.602;11.904;2022-10-16T13:28:48;34.10;33.70
62575;DHT22;53112;45.602;11.904;2022-10-16T13:31:20;34.30;33.70
62575;DHT22;53112;45.602;11.904;2022-10-16T13:33:49;34.80;33.50
62575;DHT22;53112;45.602;11.904;2022-10-16T13:36:21;35.60;31.80
62575;DHT22;53112;45.602;11.904;2022-10-16T13:38:47;36.60;30.40
62575;DHT22;53112;45.602;11.904;2022-10-16T13:41:17;37.80;28.60
62575;DHT22;53112;45.602;11.904;2022-10-16T13:43:47;37.90;27.90
62575;DHT22;53112;45.602;11.904;2022-10-16T13:46:15;36.80;29.60
62575;DHT22;53112;45.602;11.904;2022-10-16T13:48:42;36.40;29.50
62575;DHT22;53112;45.602;11.904;2022-10-16T13:51:16;36.40;30.20
62575;DHT22;53112;45.602;11.904;2022-10-16T13:53:43;35.80;30.30
62575;DHT22;53112;45.602;11.904;2022-10-16T13:56:16;36.30;30.10
62575;DHT22;53112;45.602;11.904;2022-10-16T13:58:42;37.10;29.10
62575;DHT22;53112;45.602;11.904;2022-10-16T14:01:24;36.00;29.50
62575;DHT22;53112;45.602;11.904;2022-10-16T14:03:51;35.70;30.90
62575;DHT22;53112;45.602;11.904;2022-10-16T14:06:20;37.00;29.30
62575;DHT22;53112;45.602;11.904;2022-10-16T14:09:20;37.60;27.90
62575;DHT22;53112;45.602;11.904;2022-10-16T14:11:49;38.20;27.70
62575;DHT22;53112;45.602;11.904;2022-10-16T14:14:18;37.90;26.80
62575;DHT22;53112;45.602;11.904;2022-10-16T14:16:45;37.60;28.50
62575;DHT22;53112;45.602;11.904;2022-10-16T14:19:27;36.80;29.90
62575;DHT22;53112;45.602;11.904;2022-10-16T14:21:54;36.50;29.40
62575;DHT22;53112;45.602;11.904;2022-10-16T14:24:34;36.20;30.60
62575;DHT22;53112;45.602;11.904;2022-10-16T14:27:01;35.80;31.10
62575;DHT22;53112;45.602;11.904;2022-10-16T14:29:29;35.80;30.90
62575;DHT22;53112;45.602;11.904;2022-10-16T14:32:02;36.20;30.60
62575;DHT22;53112;45.602;11.904;2022-10-16T14:34:34;36.90;29.10
62575;DHT22;53112;45.602;11.904;2022-10-16T14:37:17;36.50;29.80
62575;DHT22;53112;45.602;11.904;2022-10-16T14:39:49;35.90;30.40
62575;DHT22;53112;45.602;11.904;2022-10-16T14:42:20;35.40;31.60
62575;DHT22;53112;45.602;11.904;2022-10-16T14:44:53;35.00;32.50
62575;DHT22;53112;45.602;11.904;2022-10-16T14:47:22;34.50;33.00
62575;DHT22;53112;45.602;11.904;2022-10-16T14:49:53;33.80;33.60
62575;DHT22;53112;45.602;11.904;2022-10-16T14:52:24;33.10;34.40
62575;DHT22;53112;45.602;11.904;2022-10-16T14:54:51;33.00;35.50
62575;DHT22;53112;45.602;11.904;2022-10-16T14:57:26;33.00;35.60
62575;DHT22;53112;45.602;11.904;2022-10-16T14:59:52;33.00;34.80
62575;DHT22;53112;45.602;11.904;2022-10-16T15:02:33;32.90;35.90
62575;DHT22;53112;45.602;11.904;2022-10-16T15:05:16;32.70;36.50
62575;DHT22;53112;45.602;11.904;2022-10-16T15:07:43;32.40;36.20
62575;DHT22;53112;45.602;11.904;2022-10-16T15:10:09;32.00;36.90
62575;DHT22;53112;45.602;11.904;2022-10-16T15:12:36;31.70;37.40
62575;DHT22;53112;45.602;11.904;2022-10-16T15:17:49;31.40;38.20
62575;DHT22;53112;45.602;11.904;2022-10-16T15:20:19;31.40;38.10
62575;DHT22;53112;45.602;11.904;2022-10-16T15:22:45;31.30;38.30
62575;DHT22;53112;45.602;11.904;2022-10-16T15:28:03;31.00;38.30
62575;DHT22;53112;45.602;11.904;2022-10-16T15:30:29;30.80;38.60
62575;DHT22;53112;45.602;11.904;2022-10-16T15:32:55;30.70;38.70
62575;DHT22;53112;45.602;11.904;2022-10-16T15:35:21;30.50;39.30
62575;DHT22;53112;45.602;11.904;2022-10-16T15:37:48;30.30;39.70
62575;DHT22;53112;45.602;11.904;2022-10-16T15:40:17;30.10;40.10
62575;DHT22;53112;45.602;11.904;2022-10-16T15:42:43;30.00;40.50
62575;DHT22;53112;45.602;11.904;2022-10-16T15:45:11;29.80;40.80
62575;DHT22;53112;45.602;11.904;2022-10-16T15:47:38;29.50;41.50
62575;DHT22;53112;45.602;11.904;2022-10-16T15:50:05;28.90;42.60
62575;DHT22;53112;45.602;11.904;2022-10-16T15:52:31;28.80;42.80
62575;DHT22;53112;45.602;11.904;2022-10-16T15:54:58;28.80;42.60
62575;DHT22;53112;45.602;11.904;2022-10-16T15:57:25;28.70;43.00
62575;DHT22;53112;45.602;11.904;2022-10-16T15:59:53;28.40;43.70
62575;DHT22;53112;45.602;11.904;2022-10-16T16:02:19;28.20;44.20
62575;DHT22;53112;45.602;11.904;2022-10-16T16:04:45;28.10;44.50
62575;DHT22;53112;45.602;11.904;2022-10-16T16:07:11;28.00;44.60
62575;DHT22;53112;45.602;11.904;2022-10-16T16:09:37;27.60;45.50
62575;DHT22;53112;45.602;11.904;2022-10-16T16:12:03;27.40;45.90
62575;DHT22;53112;45.602;11.904;2022-10-16T16:14:29;27.20;46.20
62575;DHT22;53112;45.602;11.904;2022-10-16T16:16:56;27.10;46.50
62575;DHT22;53112;45.602;11.904;2022-10-16T16:19:22;26.90;46.80
62575;DHT22;53112;45.602;11.904;2022-10-16T16:21:49;26.80;47.00
62575;DHT22;53112;45.602;11.904;2022-10-16T16:24:15;26.60;47.60
62575;DHT22;53112;45.602;11.904;2022-10-16T16:26:41;26.40;47.90
62575;DHT22;53112;45.602;11.904;2022-10-16T16:29:13;26.30;47.80
62575;DHT22;53112;45.602;11.904;2022-10-16T16:31:42;26.10;48.20
62575;DHT22;53112;45.602;11.904;2022-10-16T16:34:09;26.10;48.30
62575;DHT22;53112;45.602;11.904;2022-10-16T16:36:35;25.90;48.40
62575;DHT22;53112;45.602;11.904;2022-10-16T16:39:01;25.70;49.00
62575;DHT22;53112;45.602;11.904;2022-10-16T16:41:28;25.60;49.30
62575;DHT22;53112;45.602;11.904;2022-10-16T16:44:02;25.40;49.90
62575;DHT22;53112;45.602;11.904;2022-10-16T16:46:29;25.40;50.20
62575;DHT22;53112;45.602;11.904;2022-10-16T16:48:54;25.30;49.80
62575;DHT22;53112;45.602;11.904;2022-10-16T16:51:21;25.10;51.00
62575;DHT22;53112;45.602;11.904;2022-10-16T16:53:49;24.70;52.10
62575;DHT22;53112;45.602;11.904;2022-10-16T16:56:16;24.60;51.80
62575;DHT22;53112;45.602;11.904;2022-10-16T16:58:45;24.60;51.80
62575;DHT22;53112;45.602;11.904;2022-10-16T17:01:12;24.50;52.20
62575;DHT22;53112;45.602;11.904;2022-10-16T17:03:42;24.30;52.30
62575;DHT22;53112;45.602;11.904;2022-10-16T17:06:12;24.20;52.30
62575;DHT22;53112;45.602;11.904;2022-10-16T17:08:40;24.20;52.20
62575;DHT22;53112;45.602;11.904;2022-10-16T17:11:11;24.20;52.30
62575;DHT22;53112;45.602;11.904;2022-10-16T17:13:37;24.10;52.50
62575;DHT22;53112;45.602;11.904;2022-10-16T17:16:09;24.00;52.70
62575;DHT22;53112;45.602;11.904;2022-10-16T17:18:35;24.00;52.90
62575;DHT22;53112;45.602;11.904;2022-10-16T17:21:04;23.80;52.90
62575;DHT22;53112;45.602;11.904;2022-10-16T17:23:32;23.80;53.20
62575;DHT22;53112;45.602;11.904;2022-10-16T17:26:07;23.60;53.60
62575;DHT22;53112;45.602;11.904;2022-10-16T17:28:33;23.30;56.80
62575;DHT22;53112;45.602;11.904;2022-10-16T17:31:14;22.80;57.80
62575;DHT22;53112;45.602;11.904;2022-10-16T17:33:41;22.50;59.10
62575;DHT22;53112;45.602;11.904;2022-10-16T17:36:07;22.60;56.90
62575;DHT22;53112;45.602;11.904;2022-10-16T17:38:34;22.80;55.90
62575;DHT22;53112;45.602;11.904;2022-10-16T17:41:29;22.90;55.60
62575;DHT22;53112;45.602;11.904;2022-10-16T17:43:55;23.00;56.80
62575;DHT22;53112;45.602;11.904;2022-10-16T17:46:22;23.00;55.30